Time;durP1;ratioP1;P1;durP2;ratioP2;P2;SDS_P1;SDS_P2;PMS_P1;PMS_P2;Temp;Humidity;BMP_temperature;BMP_pressure;BME280_temperature;BME280_humidity;BME280_pressure;Samples;Min_cycle;Max_cycle;Signal;HPM_P1;HPM_P2
2022/03/05 00:00:17;;;;;;;12.38;8.55;;;3.20;99.90;;;;;;5042891;28;20053;-64
2022/03/05 00:02:42;;;;;;;14.48;10.02;;;3.20;99.90;;;;;;5033082;28;20036;-64
2022/03/05 00:05:10;;;;;;;12.45;9.27;;;3.20;99.90;;;;;;5036924;28;20093;-64
2022/03/05 00:07:35;;;;;;;14.70;9.63;;;3.10;99.90;;;;;;5045085;28;20053;-64
2022/03/05 00:10:02;;;;;;;15.05;10.15;;;3.10;99.90;;;;;;5032121;28;20033;-64
2022/03/05 00:12:27;;;;;;;17.20;9.75;;;3.10;99.90;;;;;;5031585;28;20041;-64
2022/03/05 00:14:53;;;;;;;14.60;9.35;;;3.00;99.90;;;;;;5045186;28;20041;-64
2022/03/05 00:17:19;;;;;;;14.85;9.32;;;2.90;99.90;;;;;;5045710;28;20044;-64
2022/03/05 00:19:44;;;;;;;13.23;10.40;;;2.90;99.90;;;;;;5035231;28;20168;-64
2022/03/05 00:22:10;;;;;;;17.42;10.77;;;2.90;99.90;;;;;;5035236;28;20049;-64
2022/03/05 00:24:36;;;;;;;16.42;10.05;;;2.90;99.90;;;;;;5032306;28;20037;-64
2022/03/05 00:27:01;;;;;;;15.10;10.32;;;2.80;99.90;;;;;;5047189;28;20607;-64
2022/03/05 00:29:27;;;;;;;17.30;11.73;;;2.80;99.90;;;;;;5036547;28;20045;-64
2022/03/05 00:31:52;;;;;;;13.63;9.20;;;2.90;99.90;;;;;;5040910;28;20041;-64
2022/03/05 00:34:18;;;;;;;15.43;9.80;;;2.90;99.90;;;;;;5045394;28;20439;-64
2022/03/05 00:36:43;;;;;;;14.23;9.45;;;2.80;99.90;;;;;;5040362;28;20033;-64
2022/03/05 00:39:09;;;;;;;15.15;10.55;;;2.80;99.90;;;;;;5035188;28;20123;-64
2022/03/05 00:41:34;;;;;;;16.63;10.20;;;2.70;99.90;;;;;;5038413;28;20120;-64
2022/03/05 00:44:00;;;;;;;16.40;10.50;;;2.70;99.90;;;;;;5033448;28;20139;-64
2022/03/05 00:46:26;;;;;;;13.25;9.57;;;2.60;99.90;;;;;;5034149;28;20061;-64
2022/03/05 00:48:52;;;;;;;13.82;9.70;;;2.60;99.90;;;;;;5036277;28;20041;-64
2022/03/05 00:51:18;;;;;;;13.68;9.68;;;2.60;99.90;;;;;;5045891;28;20374;-64
2022/03/05 00:53:44;;;;;;;15.00;10.35;;;2.50;99.90;;;;;;5036803;28;20382;-64
2022/03/05 00:56:10;;;;;;;16.02;10.13;;;2.60;99.90;;;;;;5033486;28;20052;-64
2022/03/05 00:58:35;;;;;;;14.10;10.65;;;2.60;99.90;;;;;;5036100;28;20526;-64
2022/03/05 01:01:01;;;;;;;13.93;10.27;;;2.60;99.90;;;;;;5040127;28;20044;-64
2022/03/05 01:03:27;;;;;;;13.30;9.88;;;2.60;99.90;;;;;;5040734;28;20051;-64
2022/03/05 01:05:54;;;;;;;14.10;10.30;;;2.50;99.90;;;;;;5029184;28;20041;-64
2022/03/05 01:08:20;;;;;;;15.13;10.02;;;2.50;99.90;;;;;;5041950;28;20110;-64
2022/03/05 01:10:45;;;;;;;19.67;11.50;;;2.50;99.90;;;;;;5042819;28;20481;-64
2022/03/05 01:13:11;;;;;;;13.88;10.20;;;2.40;99.90;;;;;;5036585;28;20473;-64
2022/03/05 01:15:36;;;;;;;17.58;10.75;;;2.50;99.90;;;;;;5038393;28;20048;-64
2022/03/05 01:18:02;;;;;;;13.73;10.15;;;2.40;99.90;;;;;;5049834;28;20099;-63
2022/03/05 01:20:28;;;;;;;17.35;10.32;;;2.40;99.90;;;;;;5038827;28;20068;-64
2022/03/05 01:22:53;;;;;;;13.05;9.77;;;2.50;99.90;;;;;;5048694;28;20049;-64
2022/03/05 01:25:19;;;;;;;15.63;10.80;;;2.40;99.90;;;;;;5038826;28;20136;-64
2022/03/05 01:27:45;;;;;;;16.00;10.93;;;2.40;99.90;;;;;;5049390;28;20063;-64
2022/03/05 01:30:11;;;;;;;17.15;11.13;;;2.40;99.90;;;;;;5047070;28;20548;-64
2022/03/05 01:32:36;;;;;;;15.52;11.10;;;2.40;99.90;;;;;;5043667;28;20033;-64
2022/03/05 01:35:02;;;;;;;13.75;10.65;;;2.30;99.90;;;;;;5043261;28;20068;-64
2022/03/05 01:37:28;;;;;;;16.33;11.02;;;2.40;99.90;;;;;;5038129;28;20102;-64
2022/03/05 01:39:53;;;;;;;17.35;10.85;;;2.40;99.90;;;;;;5039352;28;20045;-64
2022/03/05 01:42:20;;;;;;;16.52;11.13;;;2.30;99.90;;;;;;5035031;28;20057;-64
2022/03/05 01:44:45;;;;;;;17.38;10.82;;;2.30;99.90;;;;;;5037489;28;20062;-63
2022/03/05 01:47:11;;;;;;;13.93;10.05;;;2.20;99.90;;;;;;5037608;28;20053;-64
2022/03/05 01:49:37;;;;;;;16.05;9.40;;;2.20;99.90;;;;;;5041132;28;20045;-63
2022/03/05 01:52:03;;;;;;;15.55;10.48;;;2.20;99.90;;;;;;5036419;28;20088;-64
2022/03/05 01:54:29;;;;;;;21.33;11.65;;;2.20;99.90;;;;;;5043182;28;20512;-64
2022/03/05 01:56:56;;;;;;;14.60;11.18;;;2.10;99.90;;;;;;5045508;28;20045;-64
2022/03/05 01:59:22;;;;;;;17.42;11.25;;;2.20;99.90;;;;;;5031422;28;20477;-64
2022/03/05 02:01:48;;;;;;;13.98;10.02;;;2.20;99.90;;;;;;5042845;28;20032;-63
2022/03/05 02:04:13;;;;;;;14.18;9.85;;;2.10;99.90;;;;;;5044840;28;20041;-63
2022/03/05 02:06:39;;;;;;;15.40;11.93;;;2.20;99.90;;;;;;5041123;28;20552;-64
2022/03/05 02:09:04;;;;;;;17.35;10.75;;;2.10;99.90;;;;;;5039310;28;20049;-64
2022/03/05 02:11:30;;;;;;;18.15;9.50;;;2.10;99.90;;;;;;5032352;28;20448;-64
2022/03/05 02:13:56;;;;;;;13.90;10.77;;;2.10;99.90;;;;;;5040150;28;20124;-64
2022/03/05 02:16:22;;;;;;;19.05;9.57;;;2.00;99.90;;;;;;5045871;28;20432;-64
2022/03/05 02:18:49;;;;;;;14.65;11.07;;;2.00;99.90;;;;;;5042630;28;20041;-63
2022/03/05 02:21:16;;;;;;;14.80;10.32;;;2.00;99.90;;;;;;5037200;28;20049;-64
2022/03/05 02:23:42;;;;;;;14.15;9.88;;;2.00;99.90;;;;;;5049126;28;20123;-64
2022/03/05 02:26:08;;;;;;;13.27;10.15;;;2.00;99.90;;;;;;5035895;28;20172;-64
2022/03/05 02:28:35;;;;;;;19.33;12.45;;;2.00;99.90;;;;;;5040222;28;20051;-64
2022/03/05 02:31:01;;;;;;;17.10;9.88;;;2.00;99.90;;;;;;5045945;28;20045;-63
2022/03/05 02:33:27;;;;;;;19.65;11.38;;;1.90;99.90;;;;;;5044099;28;20041;-63
2022/03/05 02:35:53;;;;;;;17.17;11.20;;;1.90;99.90;;;;;;5045299;28;20063;-63
2022/03/05 02:38:20;;;;;;;13.57;10.60;;;1.90;99.90;;;;;;5036625;28;20084;-64
2022/03/05 02:40:47;;;;;;;15.82;10.05;;;1.90;99.90;;;;;;5035475;28;20125;-64
2022/03/05 02:43:14;;;;;;;22.05;11.05;;;1.90;99.90;;;;;;5033892;28;20100;-64
2022/03/05 02:45:41;;;;;;;15.90;10.90;;;1.90;99.90;;;;;;5040226;28;20554;-64
2022/03/05 02:48:13;;;;;;;15.65;10.65;;;1.90;99.90;;;;;;5047291;28;20412;-64
2022/03/05 02:50:40;;;;;;;17.27;10.13;;;1.80;99.90;;;;;;5028484;28;20072;-64
2022/03/05 02:53:06;;;;;;;20.20;11.82;;;1.80;99.90;;;;;;5044704;28;20060;-64
2022/03/05 02:55:31;;;;;;;14.60;10.55;;;1.80;99.90;;;;;;5048124;28;20037;-63
2022/03/05 02:57:57;;;;;;;19.60;10.60;;;1.80;99.90;;;;;;5042312;28;20049;-63
2022/03/05 03:00:23;;;;;;;16.08;11.18;;;1.80;99.90;;;;;;5030623;28;20453;-63
2022/03/05 03:02:49;;;;;;;14.35;10.20;;;1.70;99.90;;;;;;5041449;28;20365;-64
2022/03/05 03:05:16;;;;;;;14.60;9.60;;;1.70;99.90;;;;;;5044861;28;20045;-64
2022/03/05 03:07:43;;;;;;;14.52;9.82;;;1.70;99.90;;;;;;5036661;28;20507;-64
2022/03/05 03:10:09;;;;;;;16.63;8.95;;;1.70;99.90;;;;;;5038696;28;20049;-64
2022/03/05 03:12:36;;;;;;;17.92;10.25;;;1.70;99.90;;;;;;5038486;28;20037;-63
2022/03/05 03:15:03;;;;;;;11.38;8.55;;;1.70;99.90;;;;;;5045288;28;20049;-64
2022/03/05 03:17:29;;;;;;;15.95;9.50;;;1.70;99.90;;;;;;5039563;28;20572;-64
2022/03/05 03:19:55;;;;;;;10.77;8.20;;;1.70;99.90;;;;;;5045423;28;20039;-64
2022/03/05 03:22:20;;;;;;;14.93;9.05;;;1.70;99.90;;;;;;5033147;28;20384;-64
2022/03/05 03:24:46;;;;;;;14.20;9.18;;;1.70;99.90;;;;;;5028695;28;20818;-64
2022/03/05 03:27:12;;;;;;;12.80;8.73;;;1.70;99.90;;;;;;5038254;28;20501;-64
2022/03/05 03:29:38;;;;;;;14.38;9.30;;;1.70;99.90;;;;;;5035299;28;20040;-64
2022/03/05 03:32:04;;;;;;;15.70;9.48;;;1.60;99.90;;;;;;5030048;28;20485;-64
2022/03/05 03:34:30;;;;;;;13.70;9.35;;;1.70;99.90;;;;;;5036182;28;20041;-64
2022/03/05 03:36:55;;;;;;;13.48;8.57;;;1.60;99.90;;;;;;5040835;28;20136;-63
2022/03/05 03:39:21;;;;;;;13.18;8.63;;;1.60;99.90;;;;;;5043234;28;20485;-64
2022/03/05 03:41:46;;;;;;;17.30;8.30;;;1.60;99.90;;;;;;5043403;28;20140;-64
2022/03/05 03:44:12;;;;;;;12.77;8.20;;;1.50;99.90;;;;;;5035813;28;20120;-64
2022/03/05 03:46:37;;;;;;;14.60;8.32;;;1.60;99.90;;;;;;5047113;28;20069;-64
2022/03/05 03:49:03;;;;;;;14.10;8.80;;;1.70;99.90;;;;;;5036251;28;20499;-64
2022/03/05 03:51:29;;;;;;;12.90;8.30;;;1.60;99.90;;;;;;5039282;28;20136;-64
2022/03/05 03:53:54;;;;;;;13.50;8.05;;;1.60;99.90;;;;;;5045830;28;20128;-64
2022/03/05 03:56:20;;;;;;;12.52;8.25;;;1.60;99.90;;;;;;5044526;28;20041;-64
2022/03/05 03:58:45;;;;;;;12.77;8.60;;;1.60;99.90;;;;;;5033314;28;20931;-64
2022/03/05 04:01:11;;;;;;;11.73;8.05;;;1.50;99.90;;;;;;5035249;28;20045;-64
2022/03/05 04:03:36;;;;;;;14.43;9.07;;;1.60;99.90;;;;;;5045286;28;20037;-64
2022/03/05 04:06:02;;;;;;;10.93;7.50;;;1.60;99.90;;;;;;5045699;28;20063;-64
2022/03/05 04:08:43;;;;;;;14.60;6.90;;;1.50;99.90;;;;;;5030766;28;20092;-64
2022/03/05 04:11:14;;;;;;;13.55;8.50;;;1.60;99.90;;;;;;5043436;28;20057;-64
2022/03/05 04:13:40;;;;;;;14.93;9.10;;;1.60;99.90;;;;;;5045982;28;20489;-64
2022/03/05 04:16:06;;;;;;;15.55;9.18;;;1.60;99.90;;;;;;5033499;28;20052;-64
2022/03/05 04:18:32;;;;;;;13.45;8.68;;;1.60;99.90;;;;;;5040644;28;20045;-64
2022/03/05 04:20:58;;;;;;;13.05;8.02;;;1.60;99.90;;;;;;5042026;28;20830;-64
2022/03/05 04:23:23;;;;;;;14.43;8.77;;;1.60;99.90;;;;;;5041632;28;20044;-64
2022/03/05 04:25:49;;;;;;;12.38;8.63;;;1.60;99.90;;;;;;5038141;28;20432;-63
2022/03/05 04:28:15;;;;;;;12.45;8.27;;;1.60;99.90;;;;;;5039567;28;20127;-64
2022/03/05 04:30:42;;;;;;;14.25;8.65;;;1.60;99.90;;;;;;5037495;28;20041;-64
2022/03/05 04:33:07;;;;;;;14.45;9.02;;;1.70;99.90;;;;;;5041495;28;20053;-64
2022/03/05 04:35:33;;;;;;;11.88;8.70;;;1.70;99.90;;;;;;5034497;28;20571;-64
2022/03/05 04:37:58;;;;;;;12.55;8.32;;;1.60;99.90;;;;;;5031669;28;20064;-64
2022/03/05 04:40:24;;;;;;;15.55;8.95;;;1.60;99.90;;;;;;5040943;28;20033;-64
2022/03/05 04:42:50;;;;;;;12.07;7.97;;;1.60;99.90;;;;;;5042627;28;20489;-64
2022/03/05 04:45:16;;;;;;;12.38;8.10;;;1.60;99.90;;;;;;5040229;28;20750;-63
2022/03/05 04:47:41;;;;;;;15.82;9.00;;;1.60;99.90;;;;;;5033548;28;20050;-64
2022/03/05 04:50:09;;;;;;;14.82;9.35;;;1.60;99.90;;;;;;5031080;28;20098;-64
2022/03/05 04:52:34;;;;;;;13.00;9.02;;;1.50;99.90;;;;;;5039184;28;20037;-64
2022/03/05 04:55:02;;;;;;;20.25;9.35;;;1.50;99.90;;;;;;5036359;28;20048;-64
2022/03/05 04:57:27;;;;;;;14.80;9.82;;;1.50;99.90;;;;;;5046188;28;20049;-64
2022/03/05 04:59:53;;;;;;;12.02;8.25;;;1.50;99.90;;;;;;5047448;28;20044;-64
2022/03/05 05:02:18;;;;;;;14.75;9.23;;;1.50;99.90;;;;;;5031481;28;20537;-64
2022/03/05 05:04:44;;;;;;;15.63;9.13;;;1.50;99.90;;;;;;5045283;28;20041;-63
2022/03/05 05:07:10;;;;;;;13.98;8.82;;;1.50;99.90;;;;;;5049795;28;20052;-64
2022/03/05 05:09:35;;;;;;;17.40;9.63;;;1.40;99.90;;;;;;5036117;28;20115;-64
2022/03/05 05:12:01;;;;;;;15.95;9.07;;;1.40;99.90;;;;;;5042266;28;20369;-63
2022/03/05 05:14:27;;;;;;;19.73;9.95;;;1.40;99.90;;;;;;5038561;28;20037;-63
2022/03/05 05:16:53;;;;;;;15.10;10.07;;;1.40;99.90;;;;;;5047436;28;20048;-63
2022/03/05 05:19:24;;;;;;;14.00;9.30;;;1.40;99.90;;;;;;5035171;28;20052;-63
2022/03/05 05:21:51;;;;;;;17.42;10.13;;;1.30;99.90;;;;;;5041442;28;20044;-64
2022/03/05 05:24:17;;;;;;;19.98;9.93;;;1.30;99.90;;;;;;5034667;28;20046;-63
2022/03/05 05:26:43;;;;;;;15.07;10.05;;;1.30;99.90;;;;;;5045143;28;20186;-63
2022/03/05 05:29:09;;;;;;;17.83;11.25;;;1.30;99.90;;;;;;5047190;28;20554;-63
2022/03/05 05:31:35;;;;;;;16.05;10.65;;;1.30;99.90;;;;;;5045942;28;20048;-63
2022/03/05 05:34:01;;;;;;;15.75;10.10;;;1.20;99.90;;;;;;5033552;28;20073;-64
2022/03/05 05:36:27;;;;;;;16.30;10.43;;;1.20;99.90;;;;;;5045744;28;20079;-63
2022/03/05 05:38:53;;;;;;;21.73;11.70;;;1.20;99.90;;;;;;5043705;28;20115;-63
2022/03/05 05:41:18;;;;;;;19.27;9.98;;;1.20;99.90;;;;;;5034144;28;20129;-63
2022/03/05 05:43:44;;;;;;;16.33;9.95;;;1.20;99.90;;;;;;5045340;28;20029;-63
2022/03/05 05:46:11;;;;;;;15.32;10.38;;;1.20;99.90;;;;;;5044940;28;22483;-63
2022/03/05 05:48:36;;;;;;;13.77;9.25;;;1.20;99.90;;;;;;5041029;28;20095;-63
2022/03/05 05:51:02;;;;;;;13.23;9.40;;;1.20;99.90;;;;;;5043244;28;20083;-63
2022/03/05 05:53:28;;;;;;;17.73;10.23;;;1.10;99.90;;;;;;5032367;28;20501;-63
2022/03/05 05:55:53;;;;;;;12.13;8.77;;;1.10;99.90;;;;;;5037850;28;20037;-64
2022/03/05 05:58:20;;;;;;;13.93;9.43;;;1.10;99.90;;;;;;5040137;28;20556;-64
2022/03/05 06:00:46;;;;;;;13.65;9.15;;;1.10;99.90;;;;;;5048762;28;20076;-63
2022/03/05 06:03:11;;;;;;;15.50;9.45;;;1.10;99.90;;;;;;5042517;28;20061;-64
2022/03/05 06:05:37;;;;;;;12.68;9.05;;;1.10;99.90;;;;;;5042297;28;20477;-64
2022/03/05 06:08:03;;;;;;;13.50;9.05;;;1.10;99.90;;;;;;5045893;28;20476;-63
2022/03/05 06:10:29;;;;;;;15.07;9.82;;;1.00;99.90;;;;;;5032035;28;20050;-63
2022/03/05 06:12:54;;;;;;;13.65;8.68;;;1.00;99.90;;;;;;5045279;28;20041;-63
2022/03/05 06:15:20;;;;;;;14.25;10.13;;;1.00;99.90;;;;;;5046302;28;20055;-63
2022/03/05 06:17:46;;;;;;;15.75;10.15;;;1.00;99.90;;;;;;5043663;28;20663;-63
2022/03/05 06:20:12;;;;;;;14.70;8.93;;;1.00;99.90;;;;;;5042610;28;20037;-64
2022/03/05 06:22:38;;;;;;;15.20;9.18;;;1.00;99.90;;;;;;5039052;28;20129;-63
2022/03/05 06:25:07;;;;;;;15.77;8.90;;;0.90;99.90;;;;;;5034934;28;20037;-63
2022/03/05 06:27:33;;;;;;;16.23;10.60;;;1.00;99.90;;;;;;5049011;28;20049;-63
2022/03/05 06:29:58;;;;;;;12.45;9.18;;;1.00;99.90;;;;;;5041293;28;20033;-63
2022/03/05 06:32:24;;;;;;;18.70;10.82;;;1.00;99.90;;;;;;5039976;28;20046;-64
2022/03/05 06:34:51;;;;;;;12.90;9.40;;;0.90;99.90;;;;;;5036043;28;20052;-63
2022/03/05 06:37:17;;;;;;;18.30;9.70;;;1.00;99.90;;;;;;5042721;28;20037;-63
2022/03/05 06:39:42;;;;;;;14.90;10.70;;;1.00;99.90;;;;;;5049046;28;20103;-63
2022/03/05 06:42:08;;;;;;;13.98;9.60;;;1.00;99.90;;;;;;5038352;28;20057;-63
2022/03/05 06:44:35;;;;;;;13.23;9.48;;;1.00;99.90;;;;;;5036643;28;20055;-63
2022/03/05 06:47:02;;;;;;;18.65;10.45;;;1.00;99.90;;;;;;5039798;28;20095;-64
2022/03/05 06:49:27;;;;;;;15.52;10.27;;;1.10;99.90;;;;;;5038145;28;20041;-64
2022/03/05 06:51:53;;;;;;;18.30;10.23;;;1.20;99.90;;;;;;5031481;28;20607;-64
2022/03/05 06:54:18;;;;;;;13.73;9.52;;;1.20;99.90;;;;;;5032198;28;20045;-64
2022/03/05 06:56:44;;;;;;;19.02;9.55;;;1.20;99.90;;;;;;5046785;28;20080;-64
2022/03/05 06:59:10;;;;;;;15.05;8.85;;;1.30;99.90;;;;;;5035504;28;20136;-64
2022/03/05 07:01:35;;;;;;;14.13;8.73;;;1.20;99.90;;;;;;5033942;28;20650;-64
2022/03/05 07:04:01;;;;;;;13.70;7.55;;;1.30;99.90;;;;;;5035785;28;20045;-64
2022/03/05 07:06:26;;;;;;;10.30;7.47;;;1.20;99.90;;;;;;5035754;28;20124;-64
2022/03/05 07:08:52;;;;;;;14.15;8.45;;;1.30;99.90;;;;;;5045676;28;20044;-64
2022/03/05 07:11:17;;;;;;;16.42;9.07;;;1.30;99.90;;;;;;5040811;28;20041;-64
2022/03/05 07:13:43;;;;;;;12.30;7.85;;;1.40;99.90;;;;;;5035312;28;20046;-64
2022/03/05 07:16:08;;;;;;;13.25;9.13;;;1.40;99.90;;;;;;5038298;28;20664;-64
2022/03/05 07:18:34;;;;;;;10.65;7.38;;;1.50;99.90;;;;;;5039962;28;20094;-65
2022/03/05 07:20:59;;;;;;;11.07;7.93;;;1.60;99.90;;;;;;5044232;28;20049;-64
2022/03/05 07:23:25;;;;;;;13.10;7.75;;;1.60;99.90;;;;;;5033321;28;20096;-64
2022/03/05 07:25:51;;;;;;;13.25;8.00;;;1.60;99.90;;;;;;5035668;28;20045;-65
2022/03/05 07:28:16;;;;;;;12.38;8.07;;;1.70;99.90;;;;;;5034699;28;20071;-64
2022/03/05 07:30:42;;;;;;;12.10;8.32;;;1.80;99.90;;;;;;5031354;28;20041;-64
2022/03/05 07:33:08;;;;;;;11.30;8.40;;;1.80;99.90;;;;;;5047327;28;20553;-64
2022/03/05 07:35:34;;;;;;;11.98;7.72;;;1.80;99.90;;;;;;5040691;28;20067;-64
2022/03/05 07:37:59;;;;;;;11.80;7.65;;;1.90;99.90;;;;;;5032838;28;20100;-64
2022/03/05 07:40:25;;;;;;;11.70;7.45;;;2.00;99.90;;;;;;5034807;28;20491;-64
2022/03/05 07:42:50;;;;;;;11.73;7.80;;;2.00;99.90;;;;;;5035869;28;20052;-64
2022/03/05 07:45:16;;;;;;;11.70;7.55;;;2.00;99.90;;;;;;5028728;28;20033;-64
2022/03/05 07:47:42;;;;;;;15.80;8.60;;;2.10;99.90;;;;;;5037412;28;20493;-64
2022/03/05 07:50:08;;;;;;;16.70;9.48;;;2.10;99.90;;;;;;5046611;28;20505;-65
2022/03/05 07:52:33;;;;;;;10.70;7.53;;;2.20;99.90;;;;;;5036529;28;20041;-64
2022/03/05 07:54:59;;;;;;;14.75;8.60;;;2.30;99.90;;;;;;5037328;28;20065;-64
2022/03/05 07:57:24;;;;;;;12.10;7.60;;;2.30;99.90;;;;;;5033837;28;20053;-64
2022/03/05 07:59:50;;;;;;;11.65;8.10;;;2.40;99.90;;;;;;5033316;28;20049;-65
2022/03/05 08:02:16;;;;;;;15.98;8.93;;;2.40;99.90;;;;;;5039708;28;20070;-64
2022/03/05 08:04:44;;;;;;;16.13;8.68;;;2.50;99.90;;;;;;5045127;28;20045;-64
2022/03/05 08:07:10;;;;;;;13.65;8.80;;;2.50;99.90;;;;;;5039732;28;20400;-64
2022/03/05 08:09:36;;;;;;;17.13;9.23;;;2.60;99.90;;;;;;5041090;28;20051;-64
2022/03/05 08:12:03;;;;;;;12.45;7.85;;;2.70;99.90;;;;;;5036230;28;20045;-64
2022/03/05 08:14:28;;;;;;;14.77;9.02;;;2.70;99.90;;;;;;5029186;28;20057;-64
2022/03/05 08:16:54;;;;;;;13.02;7.40;;;2.70;99.90;;;;;;5044234;28;20037;-63
2022/03/05 08:19:19;;;;;;;12.73;7.97;;;2.80;99.90;;;;;;5040852;28;20045;-64
2022/03/05 08:21:45;;;;;;;16.08;9.18;;;2.90;99.90;;;;;;5035378;28;20044;-64
2022/03/05 08:24:10;;;;;;;13.10;8.80;;;2.90;99.90;;;;;;5047972;28;20080;-64
2022/03/05 08:26:37;;;;;;;19.70;13.18;;;3.00;99.90;;;;;;5039141;28;20417;-63
2022/03/05 08:29:03;;;;;;;18.80;11.50;;;3.00;99.90;;;;;;5036655;28;20394;-62
2022/03/05 08:31:31;;;;;;;17.15;10.15;;;3.00;99.90;;;;;;5050216;28;20451;-62
2022/03/05 08:34:01;;;;;;;13.38;9.27;;;3.10;99.90;;;;;;5043318;28;20049;-62
2022/03/05 08:36:27;;;;;;;16.80;9.93;;;3.20;99.90;;;;;;5032999;28;20045;-63
2022/03/05 08:38:53;;;;;;;16.33;11.05;;;3.20;99.90;;;;;;5038429;28;20539;-62
2022/03/05 08:41:19;;;;;;;13.77;9.63;;;3.30;99.90;;;;;;5031429;28;20041;-63
2022/03/05 08:43:44;;;;;;;16.50;10.88;;;3.20;99.90;;;;;;5044858;28;20068;-62
2022/03/05 08:46:10;;;;;;;14.63;8.90;;;3.40;99.90;;;;;;5031783;28;20089;-63
2022/03/05 08:48:35;;;;;;;21.08;10.73;;;3.40;99.90;;;;;;5032558;28;20458;-62
2022/03/05 08:51:01;;;;;;;16.02;10.15;;;3.40;99.90;;;;;;5042884;28;20057;-63
2022/03/05 08:53:27;;;;;;;17.85;11.48;;;3.50;99.90;;;;;;5035687;28;20140;-63
2022/03/05 08:55:52;;;;;;;16.98;11.15;;;3.50;99.90;;;;;;5035510;28;20167;-63
2022/03/05 08:58:19;;;;;;;20.25;11.70;;;3.60;99.90;;;;;;5041240;28;20080;-63
2022/03/05 09:00:45;;;;;;;19.67;10.52;;;3.60;99.90;;;;;;5044223;28;20044;-63
2022/03/05 09:03:11;;;;;;;16.65;9.85;;;3.70;99.90;;;;;;5041239;28;20546;-63
2022/03/05 09:05:37;;;;;;;17.60;11.43;;;3.70;99.90;;;;;;5042657;28;20037;-62
2022/03/05 09:08:03;;;;;;;19.13;11.25;;;3.80;99.90;;;;;;5035789;28;20045;-63
2022/03/05 09:10:29;;;;;;;18.00;11.18;;;3.80;99.90;;;;;;5041182;28;20045;-64
2022/03/05 09:12:55;;;;;;;30.48;17.10;;;3.80;99.90;;;;;;5044957;28;20037;-63
2022/03/05 09:15:20;;;;;;;27.50;16.38;;;3.80;99.90;;;;;;5036016;28;20064;-63
2022/03/05 09:17:46;;;;;;;33.30;19.48;;;3.70;99.90;;;;;;5036023;28;20075;-63
2022/03/05 09:20:12;;;;;;;34.55;18.35;;;3.90;99.90;;;;;;5048594;28;20076;-63
2022/03/05 09:22:38;;;;;;;24.98;13.82;;;3.90;99.90;;;;;;5043081;28;20123;-63
2022/03/05 09:25:05;;;;;;;19.23;11.82;;;3.90;99.90;;;;;;5038928;28;20053;-63
2022/03/05 09:27:30;;;;;;;18.42;11.73;;;3.90;99.90;;;;;;5039171;28;20722;-63
2022/03/05 09:29:58;;;;;;;19.75;12.38;;;3.90;99.90;;;;;;5034033;28;20042;-63
2022/03/05 09:32:23;;;;;;;18.35;11.25;;;4.00;99.90;;;;;;5030787;28;20081;-63
2022/03/05 09:34:49;;;;;;;19.08;12.82;;;4.10;99.90;;;;;;5049696;28;20073;-64
2022/03/05 09:37:15;;;;;;;22.42;12.57;;;4.20;99.90;;;;;;5047613;28;20132;-63
2022/03/05 09:39:40;;;;;;;18.80;12.32;;;4.50;99.90;;;;;;5048655;28;20054;-64
2022/03/05 09:42:06;;;;;;;23.25;15.10;;;5.40;99.90;;;;;;5035443;28;20046;-64
2022/03/05 09:44:32;;;;;;;25.63;15.55;;;6.20;99.90;;;;;;5030648;28;20124;-63
2022/03/05 09:47:00;;;;;;;23.30;13.95;;;6.90;99.90;;;;;;5046837;28;20083;-63
2022/03/05 09:49:27;;;;;;;18.27;12.55;;;7.60;99.90;;;;;;5049594;28;20041;-63
2022/03/05 09:51:53;;;;;;;23.10;14.52;;;8.20;99.90;;;;;;5036044;28;20084;-64
2022/03/05 09:54:19;;;;;;;23.38;15.43;;;8.50;99.90;;;;;;5032859;28;20476;-63
2022/03/05 09:56:45;;;;;;;20.05;13.32;;;8.50;99.90;;;;;;5047446;28;20098;-64
2022/03/05 09:59:11;;;;;;;20.90;12.98;;;8.90;99.90;;;;;;5033717;28;20049;-64
2022/03/05 10:01:38;;;;;;;19.58;12.07;;;9.10;99.90;;;;;;5041855;28;20052;-63
2022/03/05 10:04:04;;;;;;;18.42;11.57;;;9.10;99.90;;;;;;5039805;28;20102;-63
2022/03/05 10:06:30;;;;;;;21.05;13.13;;;9.40;99.90;;;;;;5033361;28;20040;-63
2022/03/05 10:08:56;;;;;;;21.23;12.88;;;9.80;99.90;;;;;;5050280;28;20174;-64
2022/03/05 10:11:23;;;;;;;18.90;12.45;;;9.30;99.90;;;;;;5050040;28;20064;-63
2022/03/05 10:13:49;;;;;;;19.65;11.75;;;9.30;99.90;;;;;;5036213;28;20041;-64
2022/03/05 10:16:25;;;;;;;22.85;13.77;;;9.30;99.90;;;;;;5040057;28;20549;-64
2022/03/05 10:18:53;;;;;;;22.75;13.23;;;9.30;99.90;;;;;;5038341;28;20049;-63
2022/03/05 10:21:25;;;;;;;17.52;12.02;;;9.10;99.90;;;;;;5038467;28;20439;-64
2022/03/05 10:23:50;;;;;;;18.80;13.55;;;9.10;99.90;;;;;;5041870;28;20348;-63
2022/03/05 10:26:17;;;;;;;27.13;14.05;;;8.90;99.90;;;;;;5037140;28;20132;-62
2022/03/05 10:28:42;;;;;;;19.60;13.55;;;8.80;99.90;;;;;;5039319;28;20080;-63
2022/03/05 10:31:11;;;;;;;21.52;13.25;;;9.00;99.90;;;;;;5033356;28;20100;-63
2022/03/05 10:33:47;;;;;;;20.95;13.23;;;9.00;99.90;;;;;;5028882;28;20091;-63
2022/03/05 10:36:20;;;;;;;25.13;14.63;;;9.00;99.90;;;;;;5029861;28;20092;-63
2022/03/05 10:38:51;;;;;;;19.70;12.75;;;8.90;99.90;;;;;;5036291;28;20041;-63
2022/03/05 10:41:19;;;;;;;21.67;13.70;;;8.90;99.90;;;;;;5037695;28;20038;-63
2022/03/05 10:44:05;;;;;;;15.68;11.35;;;9.10;99.90;;;;;;5035256;28;20038;-63
2022/03/05 10:46:37;;;;;;;21.15;13.60;;;9.20;99.90;;;;;;5038687;28;20682;-63
2022/03/05 10:49:07;;;;;;;23.40;15.15;;;9.20;99.90;;;;;;5045789;28;20077;-63
2022/03/05 10:51:33;;;;;;;19.50;11.77;;;8.80;99.90;;;;;;5037876;28;20060;-63
2022/03/05 10:53:58;;;;;;;25.70;13.77;;;9.20;99.90;;;;;;5037581;28;20048;-63
2022/03/05 10:56:31;;;;;;;23.08;14.60;;;9.50;99.90;;;;;;5047747;28;20041;-63
2022/03/05 10:59:23;;;;;;;19.88;13.63;;;9.40;99.90;;;;;;5038849;28;20056;-63
2022/03/05 11:01:49;;;;;;;26.10;14.98;;;9.20;99.90;;;;;;5043323;28;20049;-63
2022/03/05 11:04:15;;;;;;;25.25;15.68;;;9.10;99.90;;;;;;5036422;28;20060;-64
2022/03/05 11:06:42;;;;;;;26.50;16.13;;;9.20;99.90;;;;;;5040091;28;20079;-64
2022/03/05 11:09:12;;;;;;;20.73;13.10;;;9.40;99.90;;;;;;5031531;28;20037;-63
2022/03/05 11:11:40;;;;;;;22.38;14.48;;;9.30;99.90;;;;;;5046519;28;20045;-64
2022/03/05 11:14:10;;;;;;;25.83;14.30;;;9.50;99.90;;;;;;5042014;28;20064;-64
2022/03/05 11:16:36;;;;;;;23.70;15.05;;;9.40;99.90;;;;;;5045028;28;20083;-64
2022/03/05 11:19:02;;;;;;;23.08;14.63;;;9.30;99.90;;;;;;5047445;28;20052;-64
2022/03/05 11:21:29;;;;;;;25.52;14.70;;;9.30;99.90;;;;;;5034249;28;20049;-63
2022/03/05 11:23:57;;;;;;;24.67;13.95;;;9.60;99.90;;;;;;5035878;28;20049;-63
2022/03/05 11:26:23;;;;;;;24.35;13.98;;;9.80;99.90;;;;;;5037216;28;20040;-64
2022/03/05 11:28:50;;;;;;;22.90;12.82;;;9.80;99.90;;;;;;5048834;28;20036;-63
2022/03/05 11:31:17;;;;;;;24.65;13.40;;;10.40;99.90;;;;;;5029401;28;20060;-63
2022/03/05 11:33:45;;;;;;;25.00;14.43;;;10.60;99.90;;;;;;5041697;28;20094;-63
2022/03/05 11:36:22;;;;;;;22.90;13.75;;;10.30;99.90;;;;;;5044805;28;20049;-64
2022/03/05 11:38:48;;;;;;;22.65;14.05;;;10.70;99.90;;;;;;5029737;28;20449;-63
2022/03/05 11:41:19;;;;;;;21.80;14.00;;;10.70;99.90;;;;;;5030463;28;20045;-64
2022/03/05 11:43:46;;;;;;;22.85;13.80;;;10.90;99.90;;;;;;5046575;28;20056;-64
2022/03/05 11:46:23;;;;;;;20.83;12.93;;;10.60;99.50;;;;;;5040341;28;20049;-63
2022/03/05 11:48:59;;;;;;;21.77;12.48;;;11.50;99.90;;;;;;5047018;28;20043;-64
2022/03/05 11:51:25;;;;;;;17.40;12.32;;;11.70;99.90;;;;;;5039816;28;20053;-64
2022/03/05 11:54:13;;;;;;;22.77;13.45;;;11.70;98.50;;;;;;5035543;28;20053;-64
2022/03/05 11:56:38;;;;;;;20.65;12.32;;;11.70;98.10;;;;;;5047723;28;20071;-64
2022/03/05 11:59:32;;;;;;;20.83;13.80;;;11.70;99.60;;;;;;5027378;28;20072;-63
2022/03/05 12:01:58;;;;;;;26.65;15.93;;;11.80;97.30;;;;;;5046600;28;20041;-63
2022/03/05 12:04:28;;;;;;;22.23;14.02;;;11.50;96.30;;;;;;5035023;28;20053;-64
2022/03/05 12:07:13;;;;;;;24.65;14.63;;;11.70;96.50;;;;;;5030748;28;20076;-63
2022/03/05 12:10:03;;;;;;;23.30;13.80;;;11.90;98.50;;;;;;5032279;28;20042;-64
2022/03/05 12:12:58;;;;;;;22.42;14.32;;;12.00;97.90;;;;;;5038750;28;20048;-64
2022/03/05 12:15:34;;;;;;;20.13;14.07;;;11.90;98.10;;;;;;5045411;28;20470;-64
2022/03/05 12:18:03;;;;;;;21.73;14.25;;;12.00;97.80;;;;;;5041517;28;20038;-64
2022/03/05 12:20:36;;;;;;;23.02;13.88;;;12.50;97.20;;;;;;5034143;28;20080;-64
2022/03/05 12:23:07;;;;;;;21.55;14.52;;;12.10;96.80;;;;;;5038037;28;20176;-64
2022/03/05 12:25:37;;;;;;;22.83;13.55;;;11.90;95.40;;;;;;5034198;28;20061;-64
2022/03/05 12:28:05;;;;;;;23.30;13.27;;;11.80;94.90;;;;;;5027134;28;20065;-64
2022/03/05 12:30:35;;;;;;;18.92;11.88;;;12.30;98.00;;;;;;5045392;28;20049;-64
2022/03/05 12:33:06;;;;;;;19.45;12.80;;;12.70;98.70;;;;;;5048239;28;20052;-64
2022/03/05 12:35:32;;;;;;;20.85;12.93;;;12.30;98.40;;;;;;5036905;28;20738;-64
2022/03/05 12:37:58;;;;;;;20.92;12.60;;;12.70;96.20;;;;;;5029035;28;20417;-64